Terminal Aerodrome Forecast
Issued by NWS

Home | Current Version | Previous Version | Text Only | Print | Product List | Glossary On
Versions: 1 2 3 4 5 6 7 8 9 10 11 12 13 14 15 16 17 18 19
000
FTUS43 KGLD 281738
TAFMCK
TAF
KMCK 281738Z 2818/2918 04016KT 5SM -SHRA OVC008
     FM282100 03013G21KT P6SM OVC010
     FM290600 03015KT P6SM VCSH OVC007
     FM291000 02016G24KT 5SM -SN BR OVC009
     FM291300 02018G26KT 5SM -RASN BR OVC010=

USA.gov is the U.S. government's official web portal to all federal, state and local government web resources and services.